Taurus — WDB5562 — position and weather

sailwx.info

Track history (hours):
 
Tides and Currents Weather Stations Pressure Air Temp Water Temp Dewpoint Dewpoint Depression Visibility Wind Speed Wind Dir Waves Ship Positions

Taurus

Owner: Kirby Offshore Marine, LLC, Staten Island, NY. More information available from US FCC via Universal Licensing System and Coast Guard Vessel Documentation Center.

Last reported at 2015-Jul-07 01:33 UTC. Time now 2015-Jul-07 02:26 UTC.
Position N 40°38' W 074°10'.

Length 24 m.

Type: Tug. MMSI: 366910990.

Date/timePositionNaut miles runAvg speedWind from/ knotsBaromVisibWave heightAir tempDewpointWater temp
2015-Jul-07 01:33N 40°38' W 074°10'0 0.0
2015-Jul-07 00:33N 40°38' W 074°10'1 1.1
2015-Jul-06 23:33N 40°39' W 074°08'3 3.5
2015-Jul-06 22:33N 40°38' W 074°04'0 0.0
2015-Jul-06 21:33N 40°38' W 074°04'0 0.0
2015-Jul-06 20:33N 40°38' W 074°04'0 0.0
2015-Jul-06 19:33N 40°38' W 074°04'0 0.1
2015-Jul-06 18:33N 40°38' W 074°04'0 0.2
2015-Jul-06 17:34N 40°38' W 074°04'0 0.0
2015-Jul-06 16:34N 40°38' W 074°04'0 0.0
2015-Jul-06 15:34N 40°38' W 074°04'0 0.0
2015-Jul-06 14:33N 40°38' W 074°04'0 0.1
2015-Jul-06 13:33N 40°38' W 074°04'1 0.6
2015-Jul-06 12:34N 40°38' W 074°04'2 1.9
2015-Jul-06 11:33N 40°39' W 074°06'2 2.3
2015-Jul-06 10:33N 40°39' W 074°09'5 5.2
2015-Jul-06 09:33N 40°43' W 074°06'1 1.4
2015-Jul-06 08:34N 40°42' W 074°07'4 4.2
2015-Jul-06 07:33N 40°38' W 074°10'0 0.0
2015-Jul-06 06:33N 40°38' W 074°10'0 0.0
2015-Jul-06 05:33N 40°38' W 074°10'0 0.0
2015-Jul-06 04:34N 40°38' W 074°10'0 0.0
2015-Jul-06 03:33N 40°38' W 074°10'0 0.0
2015-Jul-06 02:34N 40°38' W 074°10'6 5.4
2015-Jul-06 01:25N 40°33' W 074°15'2 1.6
2015-Jul-06 00:25N 40°34' W 074°13'4 4.2
2015-Jul-05 23:33N 40°38' W 074°12'2 1.8
2015-Jul-05 22:33N 40°38' W 074°10'0 0.0
2015-Jul-05 21:34N 40°38' W 074°10'0 0.0
2015-Jul-05 20:34N 40°38' W 074°10'0 0.0
2015-Jul-05 19:34N 40°38' W 074°10'0 0.0
2015-Jul-05 18:33N 40°38' W 074°10'0 0.0
2015-Jul-05 17:33N 40°38' W 074°10'0 0.0
2015-Jul-05 16:33N 40°38' W 074°10'0 0.0
2015-Jul-05 15:33N 40°38' W 074°10'3 2.9
2015-Jul-05 14:32N 40°36' W 074°12'1 1.5
2015-Jul-05 13:33N 40°38' W 074°12'2 2.0
2015-Jul-05 12:34N 40°38' W 074°10'0 0.0
2015-Jul-05 11:33N 40°38' W 074°10'0 0.0
2015-Jul-05 10:33N 40°38' W 074°10'0 0.0
2015-Jul-05 09:34N 40°38' W 074°10'0 0.0
2015-Jul-05 08:33N 40°38' W 074°10'0 0.0
2015-Jul-05 07:33N 40°38' W 074°10'0 0.0
2015-Jul-05 06:33N 40°38' W 074°10'0 0.0
2015-Jul-05 05:34N 40°38' W 074°10'0 0.0
2015-Jul-05 04:34N 40°38' W 074°10'0 0.0
2015-Jul-05 03:34N 40°38' W 074°10'2 2.0
2015-Jul-05 02:32N 40°38' W 074°12'4 1.0
2015-Jul-04 22:28N 40°34' W 074°14'0 0.0
2015-Jul-04 21:19N 40°34' W 074°14'0 0.0
2015-Jul-04 19:22N 40°34' W 074°14'0 0.0
2015-Jul-04 16:20N 40°34' W 074°14'0 0.0
2015-Jul-04 15:32N 40°34' W 074°14'0 0.0
2015-Jul-04 14:31N 40°34' W 074°14'0 0.4
2015-Jul-04 13:33N 40°33' W 074°14'0 0.0
2015-Jul-04 12:21N 40°33' W 074°14'0 0.0
2015-Jul-04 11:33N 40°34' W 074°14'0 0.0
2015-Jul-04 10:28N 40°34' W 074°14'0 0.0
2015-Jul-04 09:33N 40°33' W 074°14'0 0.0
2015-Jul-04 08:34N 40°33' W 074°14'1 0.9
2015-Jul-04 07:17N 40°34' W 074°13'1 1.7
2015-Jul-04 06:27N 40°35' W 074°13'0 0.0
2015-Jul-04 05:32N 40°35' W 074°13'0 0.3
2015-Jul-04 04:33N 40°35' W 074°12'4 3.7
2015-Jul-04 03:33N 40°38' W 074°10'0 0.0
2015-Jul-04 02:34N 40°38' W 074°10'0 0.0
2015-Jul-04 01:33N 40°38' W 074°10'0 0.0
2015-Jul-04 00:33N 40°38' W 074°10'0 0.0
2015-Jul-03 23:33N 40°38' W 074°10'0 0.0
2015-Jul-03 22:33N 40°38' W 074°10'0 0.0
2015-Jul-03 21:33N 40°38' W 074°10'4 3.5
2015-Jul-03 20:33N 40°36' W 074°12'4 3.5
2015-Jul-03 19:33N 40°38' W 074°10'0 0.0
2015-Jul-03 18:33N 40°38' W 074°10'0 0.0
2015-Jul-03 17:34N 40°38' W 074°10'0 0.1
2015-Jul-03 16:34N 40°39' W 074°10'0 0.0
2015-Jul-03 15:33N 40°39' W 074°10'0 0.0
2015-Jul-03 14:33N 40°39' W 074°10'0 0.0
2015-Jul-03 13:33N 40°39' W 074°10'3 3.4
2015-Jul-03 12:32N 40°36' W 074°12'3 3.0
2015-Jul-03 11:34N 40°38' W 074°12'6 6.4
2015-Jul-03 10:33N 40°38' W 074°03'2 2.2
2015-Jul-03 09:33N 40°36' W 074°02'0 0.0
2015-Jul-03 08:33N 40°36' W 074°02'0 0.4
2015-Jul-03 07:33N 40°36' W 074°02'6 6.4
2015-Jul-03 06:33N 40°39' W 074°10'2 2.0
2015-Jul-03 05:33N 40°37' W 074°12'1 1.1
2015-Jul-03 04:33N 40°36' W 074°12'3 2.9
2015-Jul-03 03:33N 40°38' W 074°10'0 0.3
2015-Jul-03 02:33N 40°39' W 074°10'1 1.0
2015-Jul-03 01:32N 40°38' W 074°09'1 1.3
2015-Jul-03 00:33N 40°39' W 074°07'0 0.0
2015-Jul-02 23:33N 40°39' W 074°07'0 0.0
2015-Jul-02 22:34N 40°39' W 074°07'0 0.0
2015-Jul-02 21:32N 40°39' W 074°07'0 0.0
2015-Jul-02 20:33N 40°39' W 074°07'0 0.0
2015-Jul-02 19:33N 40°39' W 074°07'0 0.0
2015-Jul-02 18:34N 40°39' W 074°07'2 1.6
2015-Jul-02 17:33N 40°39' W 074°05'4 4.2
2015-Jul-02 16:33N 40°36' W 074°02'1 0.9
2015-Jul-02 15:34N 40°36' W 074°03'4 4.3
2015-Jul-02 14:33N 40°39' W 074°07'2 1.9
2015-Jul-02 13:33N 40°39' W 074°10'0 0.0
2015-Jul-02 12:33N 40°39' W 074°10'0 0.0
2015-Jul-02 11:33N 40°39' W 074°10'0 0.0
2015-Jul-02 10:33N 40°39' W 074°10'5 5.1
2015-Jul-02 09:33N 40°34' W 074°13'0 0.1
2015-Jul-02 08:29N 40°34' W 074°13'6 6.8
2015-Jul-02 07:33N 40°39' W 074°07'0 0.2
2015-Jul-02 06:27N 40°39' W 074°07'0 0.0
2015-Jul-02 05:33N 40°39' W 074°07'0 0.0
2015-Jul-02 04:33N 40°39' W 074°07'0 0.0
2015-Jul-02 03:33N 40°39' W 074°07'0 0.0
2015-Jul-02 02:33N 40°39' W 074°07'0 0.0
2015-Jul-02 01:32N 40°39' W 074°07'1 0.6
2015-Jul-02 00:34N 40°39' W 074°06'3 3.0
2015-Jul-01 23:34N 40°39' W 074°03'0 0.0
2015-Jul-01 22:34N 40°39' W 074°03'3 3.4
2015-Jul-01 21:33N 40°39' W 074°07'4 4.3
2015-Jul-01 20:33N 40°37' W 074°12'2 1.2
2015-Jul-01 19:07N 40°35' W 074°13'0 0.1
2015-Jul-01 18:33N 40°35' W 074°13'0 0.1
2015-Jul-01 16:06N 40°35' W 074°12'3 5.4
2015-Jul-01 15:33N 40°38' W 074°12'2 1.6
2015-Jul-01 14:33N 40°39' W 074°10'0 0.0
2015-Jul-01 13:33N 40°39' W 074°10'0 0.0
2015-Jul-01 12:33N 40°39' W 074°10'0 0.0
2015-Jul-01 11:34N 40°39' W 074°10'0 0.1
2015-Jul-01 10:34N 40°38' W 074°10'2 2.4
2015-Jul-01 09:34N 40°39' W 074°07'1 0.6
2015-Jul-01 08:33N 40°39' W 074°07'4 4.3
2015-Jul-01 07:33N 40°36' W 074°12'0 0.2
2015-Jul-01 06:33N 40°36' W 074°12'5 4.8
2015-Jul-01 05:34N 40°39' W 074°07'0 0.0
2015-Jul-01 04:33N 40°39' W 074°07'0 0.0
2015-Jul-01 03:33N 40°39' W 074°07'0 0.0
2015-Jul-01 02:34N 40°39' W 074°07'0 0.0
2015-Jul-01 01:34N 40°39' W 074°07'0 0.0
2015-Jul-01 00:34N 40°39' W 074°07'0 0.0
2015-Jun-30 23:32N 40°39' W 074°07'0 0.0
2015-Jun-30 22:33N 40°39' W 074°07'0 0.0
2015-Jun-30 21:33N 40°39' W 074°07'0 0.0
2015-Jun-30 20:33N 40°39' W 074°07'0 0.0
2015-Jun-30 19:32N 40°39' W 074°07'0 0.0
2015-Jun-30 18:33N 40°39' W 074°07'0 0.0
2015-Jun-30 17:33N 40°39' W 074°07'0 0.0
2015-Jun-30 16:33N 40°39' W 074°07'0 0.0
2015-Jun-30 15:33N 40°39' W 074°07'2 2.2
2015-Jun-30 14:33N 40°39' W 074°04'7 7.3
2015-Jun-30 13:33N 40°45' W 073°58'7 6.9
2015-Jun-30 12:31N 40°48' W 073°50'7 7.6
2015-Jun-30 11:33N 40°53' W 073°43'9 8.6
2015-Jun-30 10:33N 40°59' W 073°34'9 8.6
2015-Jun-30 09:33N 41°02' W 073°24'8 8.4
2015-Jun-30 08:33N 41°06' W 073°13'8 7.9
2015-Jun-30 07:33N 41°09' W 073°04'8 7.9
2015-Jun-30 06:33N 41°13' W 072°55'4 4.4
2015-Jun-30 05:33N 41°18' W 072°54'0 0.0
2015-Jun-30 04:33N 41°18' W 072°54'0 0.0
2015-Jun-30 03:33N 41°18' W 072°54'0 0.0
2015-Jun-30 02:33N 41°18' W 072°54'0 0.0
2015-Jun-30 00:33N 41°18' W 072°54'0 0.0
2015-Jun-29 23:33N 41°18' W 072°54'0 0.0
2015-Jun-29 22:33N 41°18' W 072°54'0 0.0
2015-Jun-29 21:33N 41°18' W 072°54'0 0.0
2015-Jun-29 20:33N 41°18' W 072°54'2 1.6
2015-Jun-29 19:33N 41°16' W 072°55'6 6.3
2015-Jun-29 18:33N 41°11' W 072°59'8 7.9
2015-Jun-29 17:33N 41°06' W 073°08'8 7.7
2015-Jun-29 16:33N 41°04' W 073°18'8 7.6
2015-Jun-29 15:33N 41°01' W 073°27'7 7.1
2015-Jun-29 14:32N 40°58' W 073°35'8 6.9
2015-Jun-29 13:24N 40°53' W 073°43'12 6.3
2015-Jun-29 11:25N 40°46' W 073°57'4 4.7
2015-Jun-29 10:34N 40°42' W 073°60'5 4.8
2015-Jun-29 09:34N 40°39' W 074°04'6 5.8
2015-Jun-29 08:33N 40°38' W 074°12'0 0.4
2015-Jun-29 07:33N 40°39' W 074°11'1 1.1
2015-Jun-29 06:33N 40°38' W 074°10'0 0.0
2015-Jun-29 05:33N 40°38' W 074°10'0 0.0
2015-Jun-29 04:33N 40°38' W 074°10'0 0.0
2015-Jun-29 03:33N 40°38' W 074°10'0 0.0
2015-Jun-29 02:33N 40°38' W 074°10'0 0.0
2015-Jun-29 01:33N 40°38' W 074°10'2 1.7
2015-Jun-29 00:29N 40°38' W 074°12'0 0.0
2015-Jun-28 23:31N 40°38' W 074°12'0 0.2
2015-Jun-28 22:33N 40°38' W 074°12'5 5.1
2015-Jun-28 21:31N 40°33' W 074°15'1 0.4
2015-Jun-28 18:18N 40°34' W 074°14'2 0.3
2015-Jun-28 12:32N 40°33' W 074°15'3 2.8
2015-Jun-28 11:27N 40°35' W 074°13'5 5.1
2015-Jun-28 10:32N 40°39' W 074°09'2 2.5
2015-Jun-28 09:33N 40°39' W 074°06'3 3.1
2015-Jun-28 08:33N 40°38' W 074°10'0 0.0
2015-Jun-28 07:33N 40°38' W 074°10'0 0.0
2015-Jun-28 06:33N 40°38' W 074°10'0 0.0
2015-Jun-28 05:33N 40°38' W 074°10'1 0.6
2015-Jun-28 04:33N 40°39' W 074°11'2 2.4
2015-Jun-28 03:32N 40°39' W 074°07'0 0.2
2015-Jun-28 02:33N 40°39' W 074°07'0 0.1
2015-Jun-28 01:34N 40°39' W 074°07'2 1.7
2015-Jun-28 00:33N 40°39' W 074°05'1 1.0
2015-Jun-27 23:33N 40°39' W 074°06'3 2.6
2015-Jun-27 22:33N 40°38' W 074°10'0 0.3
2015-Jun-27 21:33N 40°38' W 074°10'0 0.0
2015-Jun-27 20:33N 40°38' W 074°10'0 0.0
2015-Jun-27 19:33N 40°38' W 074°10'0 0.0
2015-Jun-27 18:33N 40°38' W 074°10'0 0.3
2015-Jun-27 17:33N 40°38' W 074°10'5 5.1
2015-Jun-27 16:33N 40°40' W 074°03'9 8.9
2015-Jun-27 15:33N 40°47' W 073°56'7 7.5
2015-Jun-27 14:33N 40°50' W 073°47'8 8.2
2015-Jun-27 13:33N 40°56' W 073°39'8 8.2
2015-Jun-27 12:33N 41°00' W 073°30'8 8.4
2015-Jun-27 11:33N 41°04' W 073°20'8 8.2
2015-Jun-27 10:33N 41°08' W 073°11'2 2.1
2015-Jun-27 09:33N 41°10' W 073°10'0 0.0
2015-Jun-27 08:33N 41°10' W 073°10'0 0.0
2015-Jun-27 07:33N 41°10' W 073°10'0 0.0
2015-Jun-27 06:33N 41°10' W 073°10'0 0.0
2015-Jun-27 05:33N 41°10' W 073°10'0 0.0
2015-Jun-27 04:33N 41°10' W 073°10'0 0.0
2015-Jun-27 03:33N 41°10' W 073°10'0 0.0
2015-Jun-27 02:33N 41°10' W 073°10'  
Track history (hours):
 
Tides and Currents Weather Stations Pressure Air Temp Water Temp Dewpoint Dewpoint Depression Visibility Wind Speed Wind Dir Waves Ship Positions

Taurus

Owner: Kirby Offshore Marine, LLC, Staten Island, NY. More information available from US FCC via Universal Licensing System and Coast Guard Vessel Documentation Center.

Last reported at 2015-Jul-07 01:33 UTC. Time now 2015-Jul-07 02:26 UTC.
Position N 40°38' W 074°10'.

Length 24 m.

Type: Tug. MMSI: 366910990.

Date/timePositionNaut miles runAvg speedWind from/ knotsBaromVisibWave heightAir tempDewpointWater temp
2015-Jul-07 01:33N 40°38' W 074°10'0 0.0
2015-Jul-07 00:33N 40°38' W 074°10'1 1.1
2015-Jul-06 23:33N 40°39' W 074°08'3 3.5
2015-Jul-06 22:33N 40°38' W 074°04'0 0.0
2015-Jul-06 21:33N 40°38' W 074°04'0 0.0
2015-Jul-06 20:33N 40°38' W 074°04'0 0.0
2015-Jul-06 19:33N 40°38' W 074°04'0 0.1
2015-Jul-06 18:33N 40°38' W 074°04'0 0.2
2015-Jul-06 17:34N 40°38' W 074°04'0 0.0
2015-Jul-06 16:34N 40°38' W 074°04'0 0.0
2015-Jul-06 15:34N 40°38' W 074°04'0 0.0
2015-Jul-06 14:33N 40°38' W 074°04'0 0.1
2015-Jul-06 13:33N 40°38' W 074°04'1 0.6
2015-Jul-06 12:34N 40°38' W 074°04'2 1.9
2015-Jul-06 11:33N 40°39' W 074°06'2 2.3
2015-Jul-06 10:33N 40°39' W 074°09'5 5.2
2015-Jul-06 09:33N 40°43' W 074°06'1 1.4
2015-Jul-06 08:34N 40°42' W 074°07'4 4.2
2015-Jul-06 07:33N 40°38' W 074°10'0 0.0
2015-Jul-06 06:33N 40°38' W 074°10'0 0.0
2015-Jul-06 05:33N 40°38' W 074°10'0 0.0
2015-Jul-06 04:34N 40°38' W 074°10'0 0.0
2015-Jul-06 03:33N 40°38' W 074°10'0 0.0
2015-Jul-06 02:34N 40°38' W 074°10'6 5.4
2015-Jul-06 01:25N 40°33' W 074°15'2 1.6
2015-Jul-06 00:25N 40°34' W 074°13'4 4.2
2015-Jul-05 23:33N 40°38' W 074°12'2 1.8
2015-Jul-05 22:33N 40°38' W 074°10'0 0.0
2015-Jul-05 21:34N 40°38' W 074°10'0 0.0
2015-Jul-05 20:34N 40°38' W 074°10'0 0.0
2015-Jul-05 19:34N 40°38' W 074°10'0 0.0
2015-Jul-05 18:33N 40°38' W 074°10'0 0.0
2015-Jul-05 17:33N 40°38' W 074°10'0 0.0
2015-Jul-05 16:33N 40°38' W 074°10'0 0.0
2015-Jul-05 15:33N 40°38' W 074°10'3 2.9
2015-Jul-05 14:32N 40°36' W 074°12'1 1.5
2015-Jul-05 13:33N 40°38' W 074°12'2 2.0
2015-Jul-05 12:34N 40°38' W 074°10'0 0.0
2015-Jul-05 11:33N 40°38' W 074°10'0 0.0
2015-Jul-05 10:33N 40°38' W 074°10'0 0.0
2015-Jul-05 09:34N 40°38' W 074°10'0 0.0
2015-Jul-05 08:33N 40°38' W 074°10'0 0.0
2015-Jul-05 07:33N 40°38' W 074°10'0 0.0
2015-Jul-05 06:33N 40°38' W 074°10'0 0.0
2015-Jul-05 05:34N 40°38' W 074°10'0 0.0
2015-Jul-05 04:34N 40°38' W 074°10'0 0.0
2015-Jul-05 03:34N 40°38' W 074°10'2 2.0
2015-Jul-05 02:32N 40°38' W 074°12'4 1.0
2015-Jul-04 22:28N 40°34' W 074°14'0 0.0
2015-Jul-04 21:19N 40°34' W 074°14'0 0.0
2015-Jul-04 19:22N 40°34' W 074°14'0 0.0
2015-Jul-04 16:20N 40°34' W 074°14'0 0.0
2015-Jul-04 15:32N 40°34' W 074°14'0 0.0
2015-Jul-04 14:31N 40°34' W 074°14'0 0.4
2015-Jul-04 13:33N 40°33' W 074°14'0 0.0
2015-Jul-04 12:21N 40°33' W 074°14'0 0.0
2015-Jul-04 11:33N 40°34' W 074°14'0 0.0
2015-Jul-04 10:28N 40°34' W 074°14'0 0.0
2015-Jul-04 09:33N 40°33' W 074°14'0 0.0
2015-Jul-04 08:34N 40°33' W 074°14'1 0.9
2015-Jul-04 07:17N 40°34' W 074°13'1 1.7
2015-Jul-04 06:27N 40°35' W 074°13'0 0.0
2015-Jul-04 05:32N 40°35' W 074°13'0 0.3
2015-Jul-04 04:33N 40°35' W 074°12'4 3.7
2015-Jul-04 03:33N 40°38' W 074°10'0 0.0
2015-Jul-04 02:34N 40°38' W 074°10'0 0.0
2015-Jul-04 01:33N 40°38' W 074°10'0 0.0
2015-Jul-04 00:33N 40°38' W 074°10'0 0.0
2015-Jul-03 23:33N 40°38' W 074°10'0 0.0
2015-Jul-03 22:33N 40°38' W 074°10'0 0.0
2015-Jul-03 21:33N 40°38' W 074°10'4 3.5
2015-Jul-03 20:33N 40°36' W 074°12'4 3.5
2015-Jul-03 19:33N 40°38' W 074°10'0 0.0
2015-Jul-03 18:33N 40°38' W 074°10'0 0.0
2015-Jul-03 17:34N 40°38' W 074°10'0 0.1
2015-Jul-03 16:34N 40°39' W 074°10'0 0.0
2015-Jul-03 15:33N 40°39' W 074°10'0 0.0
2015-Jul-03 14:33N 40°39' W 074°10'0 0.0
2015-Jul-03 13:33N 40°39' W 074°10'3 3.4
2015-Jul-03 12:32N 40°36' W 074°12'3 3.0
2015-Jul-03 11:34N 40°38' W 074°12'6 6.4
2015-Jul-03 10:33N 40°38' W 074°03'2 2.2
2015-Jul-03 09:33N 40°36' W 074°02'0 0.0
2015-Jul-03 08:33N 40°36' W 074°02'0 0.4
2015-Jul-03 07:33N 40°36' W 074°02'6 6.4
2015-Jul-03 06:33N 40°39' W 074°10'2 2.0
2015-Jul-03 05:33N 40°37' W 074°12'1 1.1
2015-Jul-03 04:33N 40°36' W 074°12'3 2.9
2015-Jul-03 03:33N 40°38' W 074°10'0 0.3
2015-Jul-03 02:33N 40°39' W 074°10'1 1.0
2015-Jul-03 01:32N 40°38' W 074°09'1 1.3
2015-Jul-03 00:33N 40°39' W 074°07'0 0.0
2015-Jul-02 23:33N 40°39' W 074°07'0 0.0
2015-Jul-02 22:34N 40°39' W 074°07'0 0.0
2015-Jul-02 21:32N 40°39' W 074°07'0 0.0
2015-Jul-02 20:33N 40°39' W 074°07'0 0.0
2015-Jul-02 19:33N 40°39' W 074°07'0 0.0
2015-Jul-02 18:34N 40°39' W 074°07'2 1.6
2015-Jul-02 17:33N 40°39' W 074°05'4 4.2
2015-Jul-02 16:33N 40°36' W 074°02'1 0.9
2015-Jul-02 15:34N 40°36' W 074°03'4 4.3
2015-Jul-02 14:33N 40°39' W 074°07'2 1.9
2015-Jul-02 13:33N 40°39' W 074°10'0 0.0
2015-Jul-02 12:33N 40°39' W 074°10'0 0.0
2015-Jul-02 11:33N 40°39' W 074°10'0 0.0
2015-Jul-02 10:33N 40°39' W 074°10'5 5.1
2015-Jul-02 09:33N 40°34' W 074°13'0 0.1
2015-Jul-02 08:29N 40°34' W 074°13'6 6.8
2015-Jul-02 07:33N 40°39' W 074°07'0 0.2
2015-Jul-02 06:27N 40°39' W 074°07'0 0.0
2015-Jul-02 05:33N 40°39' W 074°07'0 0.0
2015-Jul-02 04:33N 40°39' W 074°07'0 0.0
2015-Jul-02 03:33N 40°39' W 074°07'0 0.0
2015-Jul-02 02:33N 40°39' W 074°07'0 0.0
2015-Jul-02 01:32N 40°39' W 074°07'1 0.6
2015-Jul-02 00:34N 40°39' W 074°06'3 3.0
2015-Jul-01 23:34N 40°39' W 074°03'0 0.0
2015-Jul-01 22:34N 40°39' W 074°03'3 3.4
2015-Jul-01 21:33N 40°39' W 074°07'4 4.3
2015-Jul-01 20:33N 40°37' W 074°12'2 1.2
2015-Jul-01 19:07N 40°35' W 074°13'0 0.1
2015-Jul-01 18:33N 40°35' W 074°13'0 0.1
2015-Jul-01 16:06N 40°35' W 074°12'3 5.4
2015-Jul-01 15:33N 40°38' W 074°12'2 1.6
2015-Jul-01 14:33N 40°39' W 074°10'0 0.0
2015-Jul-01 13:33N 40°39' W 074°10'0 0.0
2015-Jul-01 12:33N 40°39' W 074°10'0 0.0
2015-Jul-01 11:34N 40°39' W 074°10'0 0.1
2015-Jul-01 10:34N 40°38' W 074°10'2 2.4
2015-Jul-01 09:34N 40°39' W 074°07'1 0.6
2015-Jul-01 08:33N 40°39' W 074°07'4 4.3
2015-Jul-01 07:33N 40°36' W 074°12'0 0.2
2015-Jul-01 06:33N 40°36' W 074°12'5 4.8
2015-Jul-01 05:34N 40°39' W 074°07'0 0.0
2015-Jul-01 04:33N 40°39' W 074°07'0 0.0
2015-Jul-01 03:33N 40°39' W 074°07'0 0.0
2015-Jul-01 02:34N 40°39' W 074°07'0 0.0
2015-Jul-01 01:34N 40°39' W 074°07'0 0.0
2015-Jul-01 00:34N 40°39' W 074°07'0 0.0
2015-Jun-30 23:32N 40°39' W 074°07'0 0.0
2015-Jun-30 22:33N 40°39' W 074°07'0 0.0
2015-Jun-30 21:33N 40°39' W 074°07'0 0.0
2015-Jun-30 20:33N 40°39' W 074°07'0 0.0
2015-Jun-30 19:32N 40°39' W 074°07'0 0.0
2015-Jun-30 18:33N 40°39' W 074°07'0 0.0
2015-Jun-30 17:33N 40°39' W 074°07'0 0.0
2015-Jun-30 16:33N 40°39' W 074°07'0 0.0
2015-Jun-30 15:33N 40°39' W 074°07'2 2.2
2015-Jun-30 14:33N 40°39' W 074°04'7 7.3
2015-Jun-30 13:33N 40°45' W 073°58'7 6.9
2015-Jun-30 12:31N 40°48' W 073°50'7 7.6
2015-Jun-30 11:33N 40°53' W 073°43'9 8.6
2015-Jun-30 10:33N 40°59' W 073°34'9 8.6
2015-Jun-30 09:33N 41°02' W 073°24'8 8.4
2015-Jun-30 08:33N 41°06' W 073°13'8 7.9
2015-Jun-30 07:33N 41°09' W 073°04'8 7.9
2015-Jun-30 06:33N 41°13' W 072°55'4 4.4
2015-Jun-30 05:33N 41°18' W 072°54'0 0.0
2015-Jun-30 04:33N 41°18' W 072°54'0 0.0
2015-Jun-30 03:33N 41°18' W 072°54'0 0.0
2015-Jun-30 02:33N 41°18' W 072°54'0 0.0
2015-Jun-30 00:33N 41°18' W 072°54'0 0.0
2015-Jun-29 23:33N 41°18' W 072°54'0 0.0
2015-Jun-29 22:33N 41°18' W 072°54'0 0.0
2015-Jun-29 21:33N 41°18' W 072°54'0 0.0
2015-Jun-29 20:33N 41°18' W 072°54'2 1.6
2015-Jun-29 19:33N 41°16' W 072°55'6 6.3
2015-Jun-29 18:33N 41°11' W 072°59'8 7.9
2015-Jun-29 17:33N 41°06' W 073°08'8 7.7
2015-Jun-29 16:33N 41°04' W 073°18'8 7.6
2015-Jun-29 15:33N 41°01' W 073°27'7 7.1
2015-Jun-29 14:32N 40°58' W 073°35'8 6.9
2015-Jun-29 13:24N 40°53' W 073°43'12 6.3
2015-Jun-29 11:25N 40°46' W 073°57'4 4.7
2015-Jun-29 10:34N 40°42' W 073°60'5 4.8
2015-Jun-29 09:34N 40°39' W 074°04'6 5.8
2015-Jun-29 08:33N 40°38' W 074°12'0 0.4
2015-Jun-29 07:33N 40°39' W 074°11'1 1.1
2015-Jun-29 06:33N 40°38' W 074°10'0 0.0
2015-Jun-29 05:33N 40°38' W 074°10'0 0.0
2015-Jun-29 04:33N 40°38' W 074°10'0 0.0
2015-Jun-29 03:33N 40°38' W 074°10'0 0.0
2015-Jun-29 02:33N 40°38' W 074°10'0 0.0
2015-Jun-29 01:33N 40°38' W 074°10'2 1.7
2015-Jun-29 00:29N 40°38' W 074°12'0 0.0
2015-Jun-28 23:31N 40°38' W 074°12'0 0.2
2015-Jun-28 22:33N 40°38' W 074°12'5 5.1
2015-Jun-28 21:31N 40°33' W 074°15'1 0.4
2015-Jun-28 18:18N 40°34' W 074°14'2 0.3
2015-Jun-28 12:32N 40°33' W 074°15'3 2.8
2015-Jun-28 11:27N 40°35' W 074°13'5 5.1
2015-Jun-28 10:32N 40°39' W 074°09'2 2.5
2015-Jun-28 09:33N 40°39' W 074°06'3 3.1
2015-Jun-28 08:33N 40°38' W 074°10'0 0.0
2015-Jun-28 07:33N 40°38' W 074°10'0 0.0
2015-Jun-28 06:33N 40°38' W 074°10'0 0.0
2015-Jun-28 05:33N 40°38' W 074°10'1 0.6
2015-Jun-28 04:33N 40°39' W 074°11'2 2.4
2015-Jun-28 03:32N 40°39' W 074°07'0 0.2
2015-Jun-28 02:33N 40°39' W 074°07'0 0.1
2015-Jun-28 01:34N 40°39' W 074°07'2 1.7
2015-Jun-28 00:33N 40°39' W 074°05'1 1.0
2015-Jun-27 23:33N 40°39' W 074°06'3 2.6
2015-Jun-27 22:33N 40°38' W 074°10'0 0.3
2015-Jun-27 21:33N 40°38' W 074°10'0 0.0
2015-Jun-27 20:33N 40°38' W 074°10'0 0.0
2015-Jun-27 19:33N 40°38' W 074°10'0 0.0
2015-Jun-27 18:33N 40°38' W 074°10'0 0.3
2015-Jun-27 17:33N 40°38' W 074°10'5 5.1
2015-Jun-27 16:33N 40°40' W 074°03'9 8.9
2015-Jun-27 15:33N 40°47' W 073°56'7 7.5
2015-Jun-27 14:33N 40°50' W 073°47'8 8.2
2015-Jun-27 13:33N 40°56' W 073°39'8 8.2
2015-Jun-27 12:33N 41°00' W 073°30'8 8.4
2015-Jun-27 11:33N 41°04' W 073°20'8 8.2
2015-Jun-27 10:33N 41°08' W 073°11'2 2.1
2015-Jun-27 09:33N 41°10' W 073°10'0 0.0
2015-Jun-27 08:33N 41°10' W 073°10'0 0.0
2015-Jun-27 07:33N 41°10' W 073°10'0 0.0
2015-Jun-27 06:33N 41°10' W 073°10'0 0.0
2015-Jun-27 05:33N 41°10' W 073°10'0 0.0
2015-Jun-27 04:33N 41°10' W 073°10'0 0.0
2015-Jun-27 03:33N 41°10' W 073°10'0 0.0
2015-Jun-27 02:33N 41°10' W 073°10'  

Dump ship's entire track history